createdAt,value
2022-11-25T00:00:48.714Z,0.95
2022-11-25T00:03:16.472Z,0.90
2022-11-25T00:05:44.249Z,1.02
2022-11-25T00:08:12.244Z,0.73
2022-11-25T00:10:41.551Z,0.68
2022-11-25T00:13:09.362Z,0.90
2022-11-25T00:15:37.121Z,1.15
2022-11-25T00:18:04.941Z,1.42
2022-11-25T00:20:32.908Z,0.63
2022-11-25T00:23:00.869Z,0.93
2022-11-25T00:25:28.730Z,1.20
2022-11-25T00:27:58.142Z,0.75
2022-11-25T00:30:25.955Z,1.00
2022-11-25T00:32:54.638Z,1.05
2022-11-25T00:35:22.551Z,0.70
2022-11-25T00:37:50.375Z,0.90
2022-11-25T00:40:18.383Z,0.90
2022-11-25T00:43:04.121Z,1.17
2022-11-25T00:45:33.452Z,0.90
2022-11-25T00:48:01.487Z,0.82
2022-11-25T00:50:29.458Z,0.98
2022-11-25T00:52:57.425Z,0.55
2022-11-25T00:55:25.224Z,0.75
2022-11-25T00:57:53.155Z,1.00
2022-11-25T01:00:21.328Z,1.20
2022-11-25T01:02:50.830Z,1.05
2022-11-25T01:05:18.647Z,0.63
2022-11-25T01:07:46.518Z,1.02
2022-11-25T01:10:14.363Z,1.10
2022-11-25T01:12:42.031Z,0.75
2022-11-25T01:15:10.671Z,0.70
2022-11-25T01:17:38.690Z,0.80
2022-11-25T01:20:09.015Z,0.70
2022-11-25T01:22:37.084Z,0.75
2022-11-25T01:25:05.201Z,0.55
2022-11-25T01:27:33.070Z,1.10
2022-11-25T01:30:00.972Z,0.60
2022-11-25T01:32:28.988Z,0.85
2022-11-25T01:34:56.875Z,0.20
2022-11-25T01:37:26.566Z,0.35
2022-11-25T01:39:54.494Z,1.05
2022-11-25T01:42:22.613Z,0.85
2022-11-25T01:45:05.380Z,0.85
2022-11-25T01:47:34.150Z,0.65
2022-11-25T01:50:03.821Z,0.65
2022-11-25T01:52:33.934Z,0.10
2022-11-25T01:55:03.340Z,0.68
2022-11-25T01:57:33.562Z,0.38
2022-11-25T02:00:04.103Z,0.25
2022-11-25T02:02:32.583Z,0.40
2022-11-25T02:05:01.456Z,0.30
2022-11-25T02:07:32.069Z,0.22
2022-11-25T02:10:03.125Z,0.20
2022-11-25T02:12:31.456Z,0.40
2022-11-25T02:15:00.455Z,0.20
2022-11-25T02:17:28.467Z,0.63
2022-11-25T02:20:00.478Z,0.20
2022-11-25T02:22:35.817Z,0.50
2022-11-25T02:25:10.799Z,0.20
2022-11-25T02:27:38.818Z,0.38
2022-11-25T02:30:07.347Z,0.22
2022-11-25T02:32:35.674Z,0.43
2022-11-25T02:35:03.696Z,0.30
2022-11-25T02:37:31.672Z,0.28
2022-11-25T02:39:59.630Z,0.35
2022-11-25T02:42:31.139Z,0.40
2022-11-25T02:44:59.104Z,0.35
2022-11-25T02:47:27.063Z,0.10
2022-11-25T02:49:55.284Z,0.10
2022-11-25T02:52:23.219Z,0.32
2022-11-25T02:54:51.217Z,0.43
2022-11-25T02:57:18.979Z,0.35
2022-11-25T02:59:49.460Z,0.20
2022-11-25T03:02:17.565Z,0.13
2022-11-25T03:04:45.651Z,0.30
2022-11-25T03:07:13.540Z,0.20
2022-11-25T03:09:42.688Z,0.60
2022-11-25T03:12:22.000Z,0.30
2022-11-25T03:14:55.404Z,0.30
2022-11-25T03:17:23.355Z,0.45
2022-11-25T03:19:51.315Z,0.60
2022-11-25T03:22:19.190Z,0.30
2022-11-25T03:24:47.105Z,0.60
2022-11-25T03:27:15.230Z,0.43
2022-11-25T03:29:43.502Z,0.35
2022-11-25T03:32:12.894Z,0.20
2022-11-25T03:34:40.871Z,0.30
2022-11-25T03:37:09.409Z,0.50
2022-11-25T03:39:38.445Z,0.13
2022-11-25T03:42:08.252Z,0.28
2022-11-25T03:44:36.797Z,0.30
2022-11-25T03:47:05.159Z,0.30
2022-11-25T03:49:35.025Z,0.50
2022-11-25T03:52:02.886Z,0.50
2022-11-25T03:54:30.911Z,0.40
2022-11-25T03:57:20.092Z,0.30
2022-11-25T03:59:48.293Z,0.25
2022-11-25T04:02:17.363Z,0.30
2022-11-25T04:04:46.847Z,0.30
2022-11-25T04:07:14.989Z,0.30
2022-11-25T04:09:43.547Z,0.20
2022-11-25T04:12:31.277Z,0.40
2022-11-25T04:15:06.105Z,0.30
2022-11-25T04:17:34.331Z,0.20
2022-11-25T04:20:03.689Z,0.20
2022-11-25T04:22:31.842Z,0.17
2022-11-25T04:25:01.101Z,0.30
2022-11-25T04:27:30.133Z,0.10
2022-11-25T04:29:58.263Z,0.75
2022-11-25T04:32:27.290Z,0.25
2022-11-25T04:34:55.376Z,0.45
2022-11-25T04:37:24.940Z,0.20
2022-11-25T04:39:54.275Z,0.57
2022-11-25T04:42:34.740Z,0.30
2022-11-25T04:45:22.555Z,0.20
2022-11-25T04:47:52.796Z,0.10
2022-11-25T04:50:21.735Z,0.20
2022-11-25T04:53:11.452Z,0.20
2022-11-25T04:55:40.864Z,0.30
2022-11-25T04:58:13.902Z,0.20
2022-11-25T05:00:42.216Z,0.35
2022-11-25T05:03:12.692Z,0.35
2022-11-25T05:05:40.676Z,0.32
2022-11-25T05:08:08.947Z,0.10
2022-11-25T05:10:38.403Z,0.45
2022-11-25T05:13:06.262Z,0.30
2022-11-25T05:15:34.180Z,0.47
2022-11-25T05:18:05.623Z,0.40
2022-11-25T05:20:43.803Z,0.45
2022-11-25T05:23:11.955Z,0.30
2022-11-25T05:25:41.415Z,0.10
2022-11-25T05:28:26.221Z,0.20
2022-11-25T05:30:54.640Z,0.10
2022-11-25T05:33:23.005Z,0.40
2022-11-25T05:35:57.612Z,0.28
2022-11-25T05:38:29.559Z,0.30
2022-11-25T05:41:03.046Z,0.20
2022-11-25T05:43:31.410Z,0.30
2022-11-25T05:46:00.939Z,0.60
2022-11-25T05:48:28.857Z,0.10
2022-11-25T05:51:00.308Z,0.38
2022-11-25T05:53:29.706Z,0.32
2022-11-25T05:56:00.337Z,0.22
2022-11-25T05:58:47.875Z,0.57
2022-11-25T06:01:17.223Z,0.30
2022-11-25T06:03:46.909Z,0.50
2022-11-25T06:06:16.526Z,0.35
2022-11-25T06:08:44.902Z,0.57
2022-11-25T06:11:14.098Z,0.63
2022-11-25T06:13:42.734Z,0.25
2022-11-25T06:16:13.849Z,0.22
2022-11-25T06:18:41.942Z,0.32
2022-11-25T06:21:10.833Z,0.13
2022-11-25T06:23:39.342Z,0.10
2022-11-25T06:26:08.149Z,0.13
2022-11-25T06:28:36.988Z,0.22
2022-11-25T06:31:08.752Z,0.20
2022-11-25T06:33:47.288Z,0.30
2022-11-25T06:36:17.990Z,0.38
2022-11-25T06:38:45.856Z,0.40
2022-11-25T06:41:13.874Z,0.10
2022-11-25T06:43:41.853Z,0.50
2022-11-25T06:46:10.978Z,0.40
2022-11-25T06:48:39.144Z,0.30
2022-11-25T06:51:09.075Z,0.50
2022-11-25T06:53:36.810Z,0.57
2022-11-25T06:56:05.929Z,0.20
2022-11-25T06:58:36.437Z,1.83
2022-11-25T07:01:05.028Z,1.10
2022-11-25T07:03:32.787Z,1.70
2022-11-25T07:06:00.825Z,1.38
2022-11-25T07:08:33.922Z,1.40
2022-11-25T07:11:06.215Z,1.13
2022-11-25T07:13:34.114Z,1.40
2022-11-25T07:16:03.122Z,1.60
2022-11-25T07:18:31.763Z,2.00
2022-11-25T07:21:03.506Z,1.98
2022-11-25T07:23:32.580Z,1.65
2022-11-25T07:26:04.383Z,2.05
2022-11-25T07:28:32.295Z,1.80
2022-11-25T07:33:54.183Z,2.05
2022-11-25T07:36:21.950Z,1.60
2022-11-25T07:38:51.145Z,1.33
2022-11-25T07:41:20.195Z,1.20
2022-11-25T07:43:48.751Z,1.73
2022-11-25T07:46:26.523Z,1.85
2022-11-25T07:48:55.663Z,1.67
2022-11-25T07:51:24.500Z,1.40
2022-11-25T07:53:54.364Z,1.63
2022-11-25T07:56:22.277Z,1.35
2022-11-25T07:58:50.145Z,1.80
2022-11-25T08:01:18.974Z,1.80
2022-11-25T08:03:48.094Z,1.30
2022-11-25T08:06:16.754Z,1.48
2022-11-25T08:08:44.597Z,1.35
2022-11-25T08:11:14.550Z,1.63
2022-11-25T08:13:42.348Z,1.77
2022-11-25T08:16:11.627Z,1.60
2022-11-25T08:18:39.765Z,1.38
2022-11-25T08:21:09.176Z,1.90
2022-11-25T08:23:38.374Z,1.70
2022-11-25T08:26:06.400Z,1.92
2022-11-25T08:28:35.794Z,1.27
2022-11-25T08:31:04.775Z,1.92
2022-11-25T08:33:32.800Z,1.98
2022-11-25T08:36:00.665Z,1.60
2022-11-25T08:38:29.228Z,1.50
2022-11-25T08:40:57.320Z,1.77
2022-11-25T08:43:29.401Z,1.85
2022-11-25T08:45:59.138Z,1.90
2022-11-25T08:48:27.005Z,2.47
2022-11-25T08:50:55.543Z,1.95
2022-11-25T08:53:23.556Z,1.92
2022-11-25T08:55:51.422Z,2.35
2022-11-25T08:58:19.488Z,0.52
2022-11-25T09:00:47.312Z,1.10
2022-11-25T09:03:16.658Z,1.05
2022-11-25T09:05:45.602Z,0.80
2022-11-25T09:08:13.514Z,1.10
2022-11-25T09:10:41.735Z,0.55
2022-11-25T09:13:10.558Z,0.80
2022-11-25T09:15:38.499Z,1.17
2022-11-25T09:18:08.355Z,1.02
2022-11-25T09:20:38.572Z,0.88
2022-11-25T09:23:06.644Z,0.63
2022-11-25T09:25:34.531Z,1.13
2022-11-25T09:28:02.903Z,0.70
2022-11-25T09:30:32.901Z,1.30
2022-11-25T09:33:00.775Z,1.15
2022-11-25T09:35:28.632Z,1.83
2022-11-25T09:37:57.930Z,0.93
2022-11-25T09:40:31.215Z,0.82
2022-11-25T09:43:17.782Z,1.30
2022-11-25T09:46:06.221Z,1.00
2022-11-25T09:48:45.509Z,1.42
2022-11-25T09:51:19.196Z,1.40
2022-11-25T09:53:51.573Z,1.45
2022-11-25T09:56:25.405Z,1.05
2022-11-25T09:58:54.620Z,0.50
2022-11-25T10:01:23.874Z,1.55
2022-11-25T10:03:54.556Z,0.40
2022-11-25T10:06:23.940Z,0.63
2022-11-25T10:08:54.107Z,1.20
2022-11-25T10:11:25.901Z,0.98
2022-11-25T10:13:58.141Z,1.50
2022-11-25T10:16:35.524Z,1.20
2022-11-25T10:19:07.147Z,1.60
2022-11-25T10:21:35.061Z,0.52
2022-11-25T10:24:06.151Z,1.10
2022-11-25T10:26:38.567Z,1.10
2022-11-25T10:29:22.207Z,1.13
2022-11-25T10:31:50.682Z,0.82
2022-11-25T10:34:24.539Z,1.27
2022-11-25T10:36:53.327Z,1.08
2022-11-25T10:39:27.066Z,1.52
2022-11-25T10:41:58.988Z,1.08
2022-11-25T10:44:27.825Z,1.00
2022-11-25T10:47:13.885Z,1.30
2022-11-25T10:49:48.896Z,0.70
2022-11-25T10:52:21.373Z,1.02
2022-11-25T10:54:57.999Z,0.95
2022-11-25T10:57:28.628Z,1.15
2022-11-25T10:59:57.978Z,1.20
2022-11-25T11:02:26.617Z,0.57
2022-11-25T11:04:59.659Z,1.13
2022-11-25T11:07:28.741Z,1.13
2022-11-25T11:10:13.224Z,0.50
2022-11-25T11:12:51.605Z,0.95
2022-11-25T11:15:21.981Z,1.05
2022-11-25T11:17:50.050Z,0.95
2022-11-25T11:20:21.340Z,0.80
2022-11-25T11:22:50.953Z,1.08
2022-11-25T11:25:30.913Z,0.98
2022-11-25T11:27:59.292Z,0.85
2022-11-25T11:30:28.057Z,0.98
2022-11-25T11:32:57.567Z,0.98
2022-11-25T11:35:30.707Z,0.70
2022-11-25T11:38:01.392Z,1.00
2022-11-25T11:40:37.440Z,1.15
2022-11-25T11:43:17.919Z,0.90
2022-11-25T11:45:51.920Z,1.27
2022-11-25T11:48:22.600Z,0.77
2022-11-25T11:50:51.369Z,1.17
2022-11-25T11:53:23.176Z,0.93
2022-11-25T11:56:32.914Z,1.05
2022-11-25T11:58:53.295Z,0.90
2022-11-25T12:01:27.721Z,0.93
2022-11-25T12:03:58.411Z,0.95
2022-11-25T12:06:28.462Z,0.82
2022-11-25T12:08:59.181Z,0.60
2022-11-25T12:11:31.118Z,0.70
2022-11-25T12:14:01.714Z,0.70
2022-11-25T12:16:32.787Z,0.57
2022-11-25T12:19:04.279Z,0.70
2022-11-25T12:21:42.110Z,0.98
2022-11-25T12:24:14.631Z,0.57
2022-11-25T12:26:47.974Z,0.47
2022-11-25T12:29:19.837Z,0.95
2022-11-25T12:31:51.490Z,0.95
2022-11-25T12:34:22.585Z,0.95
2022-11-25T12:36:50.116Z,0.60
2022-11-25T12:39:21.394Z,0.98
2022-11-25T12:41:52.629Z,0.70
2022-11-25T12:44:22.389Z,0.90
2022-11-25T12:46:50.853Z,0.60
2022-11-25T12:49:20.574Z,0.90
2022-11-25T12:52:06.035Z,1.55
2022-11-25T12:54:41.844Z,0.63
2022-11-25T12:57:22.612Z,0.95
2022-11-25T13:00:24.923Z,0.60
2022-11-25T13:03:10.706Z,0.30
2022-11-25T13:05:56.050Z,0.82
2022-11-25T13:08:31.193Z,0.65
2022-11-25T13:11:10.145Z,0.90
2022-11-25T13:13:47.352Z,0.55
2022-11-25T13:16:16.340Z,0.35
2022-11-25T13:18:45.015Z,0.77
2022-11-25T13:21:13.456Z,0.88
2022-11-25T13:23:49.245Z,0.70
2022-11-25T13:26:37.305Z,0.60
2022-11-25T13:29:33.704Z,0.93
2022-11-25T13:32:02.025Z,0.50
2022-11-25T13:34:30.429Z,0.80
2022-11-25T13:36:58.894Z,0.50
2022-11-25T13:39:33.632Z,0.40
2022-11-25T13:42:06.220Z,0.68
2022-11-25T13:44:36.895Z,0.52
2022-11-25T13:47:31.615Z,0.88
2022-11-25T13:50:00.863Z,0.82
2022-11-25T13:52:46.360Z,0.85
2022-11-25T13:55:32.087Z,0.73
2022-11-25T13:58:05.036Z,0.93
2022-11-25T14:01:01.497Z,0.52
2022-11-25T14:03:44.969Z,0.85
2022-11-25T14:06:17.149Z,0.70
2022-11-25T14:08:52.109Z,0.57
2022-11-25T14:11:40.974Z,1.08
2022-11-25T14:14:23.865Z,0.70
2022-11-25T14:17:02.227Z,0.45
2022-11-25T14:19:53.995Z,0.52
2022-11-25T14:22:31.030Z,1.20
2022-11-25T14:25:06.217Z,0.95
2022-11-25T14:27:36.543Z,0.30
2022-11-25T14:30:06.355Z,0.68
2022-11-25T14:32:37.870Z,0.80
2022-11-25T14:35:09.301Z,0.63
2022-11-25T14:37:40.643Z,0.82
2022-11-25T14:40:10.700Z,0.68
2022-11-25T14:42:39.563Z,0.75
2022-11-25T14:45:21.708Z,0.80
2022-11-25T14:47:51.821Z,0.68
2022-11-25T14:50:34.625Z,0.70
2022-11-25T14:53:06.390Z,1.00
2022-11-25T14:55:34.243Z,0.57
2022-11-25T14:58:02.125Z,0.43
2022-11-25T15:00:29.943Z,0.73
2022-11-25T15:03:00.412Z,0.63
2022-11-25T15:05:32.321Z,0.40
2022-11-25T15:08:02.015Z,0.80
2022-11-25T15:10:34.513Z,0.93
2022-11-25T15:13:07.524Z,0.68
2022-11-25T15:15:35.402Z,0.93
2022-11-25T15:18:07.461Z,0.80
2022-11-25T15:20:35.856Z,1.10
2022-11-25T15:23:03.863Z,0.60
2022-11-25T15:25:31.575Z,0.70
2022-11-25T15:27:59.638Z,0.57
2022-11-25T15:30:29.352Z,1.13
2022-11-25T15:32:57.628Z,0.77
2022-11-25T15:35:27.945Z,0.52
2022-11-25T15:37:55.794Z,0.57
2022-11-25T15:40:34.152Z,0.55
2022-11-25T15:43:03.376Z,0.70
2022-11-25T15:45:34.094Z,0.90
2022-11-25T15:48:03.302Z,0.28
2022-11-25T15:50:35.297Z,0.75
2022-11-25T15:53:03.230Z,0.40
2022-11-25T15:55:32.835Z,1.13
2022-11-25T15:58:04.237Z,0.82
2022-11-25T16:00:32.208Z,0.50
2022-11-25T16:03:00.322Z,1.05
2022-11-25T16:05:33.263Z,1.05
2022-11-25T16:08:21.706Z,0.95
2022-11-25T16:10:56.742Z,1.25
2022-11-25T16:13:33.358Z,0.93
2022-11-25T16:16:03.325Z,0.80
2022-11-25T16:18:41.061Z,0.85
2022-11-25T16:21:12.414Z,1.23
2022-11-25T16:23:41.869Z,1.83
2022-11-25T16:26:15.408Z,1.00
2022-11-25T16:28:43.640Z,0.93
2022-11-25T16:31:15.987Z,0.90
2022-11-25T16:33:43.875Z,0.93
2022-11-25T16:36:13.176Z,1.00
2022-11-25T16:38:41.039Z,1.20
2022-11-25T16:41:10.697Z,0.90
2022-11-25T16:43:40.106Z,1.13
2022-11-25T16:46:08.306Z,0.98
2022-11-25T16:48:36.780Z,0.80
2022-11-25T16:51:04.665Z,1.10
2022-11-25T16:53:33.760Z,0.93
2022-11-25T16:56:02.994Z,0.73
2022-11-25T16:58:30.771Z,0.80
2022-11-25T17:00:58.635Z,0.82
2022-11-25T17:03:26.722Z,0.50
2022-11-25T17:05:55.207Z,0.82
2022-11-25T17:08:23.616Z,1.15
2022-11-25T17:10:54.450Z,1.00
2022-11-25T17:13:23.849Z,0.82
2022-11-25T17:15:51.799Z,1.10
2022-11-25T17:18:19.734Z,1.42
2022-11-25T17:20:47.595Z,1.05
2022-11-25T17:23:16.234Z,0.60
2022-11-25T17:25:46.289Z,1.48
2022-11-25T17:28:16.803Z,0.50
2022-11-25T17:30:44.786Z,0.90
2022-11-25T17:33:14.538Z,0.70
2022-11-25T17:35:42.828Z,0.63
2022-11-25T17:38:13.495Z,0.93
2022-11-25T17:40:42.753Z,0.38
2022-11-25T17:43:13.081Z,0.75
2022-11-25T17:45:42.561Z,0.50
2022-11-25T17:48:11.104Z,0.57
2022-11-25T17:50:39.086Z,0.47
2022-11-25T17:53:06.896Z,0.25
2022-11-25T17:55:36.299Z,0.60
2022-11-25T17:58:04.264Z,0.40
2022-11-25T18:00:33.481Z,0.77
2022-11-25T18:03:02.635Z,0.35
2022-11-25T18:05:30.512Z,0.40
2022-11-25T18:07:58.376Z,0.93
2022-11-25T18:10:27.542Z,0.40
2022-11-25T18:12:56.731Z,1.13
2022-11-25T18:15:26.134Z,1.70
2022-11-25T18:17:56.868Z,0.82
2022-11-25T18:20:26.929Z,0.63
2022-11-25T18:22:54.795Z,0.40
2022-11-25T18:25:23.493Z,0.80
2022-11-25T18:27:54.160Z,0.52
2022-11-25T18:30:23.929Z,0.70
2022-11-25T18:32:51.972Z,0.95
2022-11-25T18:35:20.954Z,0.40
2022-11-25T18:37:50.684Z,0.75
2022-11-25T18:40:18.962Z,0.50
2022-11-25T18:42:48.973Z,0.70
2022-11-25T18:45:18.364Z,0.70
2022-11-25T18:47:46.363Z,0.38
2022-11-25T18:50:15.324Z,0.75
2022-11-25T18:52:43.409Z,1.05
2022-11-25T18:55:13.378Z,0.98
2022-11-25T18:57:42.172Z,0.63
2022-11-25T19:00:31.853Z,1.23
2022-11-25T19:03:00.620Z,1.27
2022-11-25T19:05:30.471Z,0.20
2022-11-25T19:07:58.509Z,0.30
2022-11-25T19:10:30.412Z,0.47
2022-11-25T19:12:59.969Z,0.80
2022-11-25T19:15:27.780Z,0.88
2022-11-25T19:17:56.736Z,0.68
2022-11-25T19:20:25.305Z,0.40
2022-11-25T19:22:57.884Z,0.30
2022-11-25T19:25:30.059Z,0.60
2022-11-25T19:27:59.299Z,0.60
2022-11-25T19:30:27.810Z,0.47
2022-11-25T19:32:57.517Z,0.85
2022-11-25T19:35:27.441Z,0.52
2022-11-25T19:37:55.307Z,0.85
2022-11-25T19:40:25.122Z,0.43
2022-11-25T19:42:54.422Z,0.40
2022-11-25T19:45:22.645Z,0.50
2022-11-25T19:47:51.488Z,0.52
2022-11-25T19:50:21.281Z,1.02
2022-11-25T19:52:49.901Z,1.00
2022-11-25T19:55:18.817Z,1.05
2022-11-25T19:57:48.678Z,1.13
2022-11-25T20:00:18.780Z,0.88
2022-11-25T20:02:47.178Z,1.02
2022-11-25T20:05:17.698Z,1.10
2022-11-25T20:07:45.828Z,0.73
2022-11-25T20:10:17.986Z,0.82
2022-11-25T20:12:46.209Z,1.38
2022-11-25T20:15:14.330Z,1.05
2022-11-25T20:17:45.985Z,0.95
2022-11-25T20:20:16.424Z,0.45
2022-11-25T20:22:45.652Z,1.27
2022-11-25T20:25:15.474Z,0.95
2022-11-25T20:27:43.290Z,0.80
2022-11-25T20:30:17.908Z,0.60
2022-11-25T20:32:47.180Z,0.45
2022-11-25T20:35:15.175Z,1.80
2022-11-25T20:37:53.917Z,0.73
2022-11-25T20:40:22.686Z,1.45
2022-11-25T20:42:51.157Z,0.80
2022-11-25T20:45:20.042Z,1.15
2022-11-25T20:47:50.947Z,0.98
2022-11-25T20:50:19.592Z,1.33
2022-11-25T20:52:48.459Z,0.47
2022-11-25T20:55:17.663Z,1.10
2022-11-25T20:57:45.484Z,0.82
2022-11-25T21:00:17.221Z,0.50
2022-11-25T21:02:45.075Z,0.90
2022-11-25T21:05:14.482Z,0.77
2022-11-25T21:07:42.727Z,0.82
2022-11-25T21:10:19.721Z,0.55
2022-11-25T21:12:47.559Z,0.88
2022-11-25T21:15:15.674Z,0.88
2022-11-25T21:17:43.536Z,1.52
2022-11-25T21:20:11.970Z,0.85
2022-11-25T21:22:43.403Z,0.93
2022-11-25T21:25:12.629Z,0.30
2022-11-25T21:27:40.691Z,2.40
2022-11-25T21:30:09.158Z,0.70
2022-11-25T21:32:37.021Z,0.93
2022-11-25T21:35:05.361Z,0.30
2022-11-25T21:37:35.769Z,0.65
2022-11-25T21:40:05.588Z,1.30
2022-11-25T21:42:33.611Z,1.27
2022-11-25T21:45:01.459Z,0.43
2022-11-25T21:47:30.597Z,0.85
2022-11-25T21:49:59.303Z,0.68
2022-11-25T21:52:27.223Z,0.80
2022-11-25T21:54:54.934Z,1.10
2022-11-25T21:57:28.136Z,0.80
2022-11-25T21:59:55.940Z,1.10
2022-11-25T22:02:24.677Z,0.85
2022-11-25T22:04:53.048Z,0.70
2022-11-25T22:07:21.372Z,1.00
2022-11-25T22:09:50.310Z,1.42
2022-11-25T22:12:24.487Z,0.82
2022-11-25T22:14:54.023Z,0.45
2022-11-25T22:17:21.850Z,0.40
2022-11-25T22:19:49.822Z,0.63
2022-11-25T22:22:18.244Z,0.47
2022-11-25T22:24:46.621Z,0.50
2022-11-25T22:27:19.566Z,1.50
2022-11-25T22:29:47.432Z,0.88
2022-11-25T22:32:17.132Z,0.85
2022-11-25T22:34:45.151Z,0.80
2022-11-25T22:37:17.363Z,1.23
2022-11-25T22:39:45.211Z,0.50
2022-11-25T22:42:17.446Z,0.52
2022-11-25T22:44:46.712Z,1.05
2022-11-25T22:47:18.923Z,0.70
2022-11-25T22:49:47.502Z,0.40
2022-11-25T22:52:20.116Z,0.82
2022-11-25T22:54:47.904Z,0.75
2022-11-25T22:57:15.754Z,0.60
2022-11-25T22:59:43.812Z,0.52
2022-11-25T23:02:18.976Z,1.20
2022-11-25T23:04:48.802Z,0.65
2022-11-25T23:07:16.506Z,1.83
2022-11-25T23:09:44.550Z,0.82
2022-11-25T23:12:13.585Z,1.65
2022-11-25T23:14:41.654Z,1.00
2022-11-25T23:17:13.618Z,0.85
2022-11-25T23:19:42.971Z,1.25
2022-11-25T23:22:11.057Z,0.85
2022-11-25T23:24:40.465Z,1.08
2022-11-25T23:27:08.147Z,0.75
2022-11-25T23:29:36.015Z,1.25
2022-11-25T23:32:05.078Z,1.25
2022-11-25T23:34:33.020Z,0.77
2022-11-25T23:37:02.102Z,0.68
2022-11-25T23:39:30.029Z,0.70
2022-11-25T23:41:57.900Z,1.48
2022-11-25T23:44:26.638Z,0.40
2022-11-25T23:46:56.087Z,1.35
2022-11-25T23:49:25.511Z,0.82
2022-11-25T23:51:55.864Z,1.02
2022-11-25T23:54:25.369Z,0.70
2022-11-25T23:56:53.209Z,0.40
2022-11-25T23:59:21.092Z,0.50
